Time;durP1;ratioP1;P1;durP2;ratioP2;P2;SDS_P1;SDS_P2;PMS_P1;PMS_P2;Temp;Humidity;BMP_temperature;BMP_pressure;BME280_temperature;BME280_humidity;BME280_pressure;Samples;Min_cycle;Max_cycle;Signal;HPM_P1;HPM_P2
2020/12/29 00:00:09;;;;;;;2.43;1.70;;;4.30;99.90;;;;;;4951917;28;20717;-88
2020/12/29 00:02:37;;;;;;;2.50;1.60;;;4.30;99.90;;;;;;4950976;28;20441;-89
2020/12/29 00:05:03;;;;;;;2.63;2.07;;;4.40;99.90;;;;;;4950917;28;20492;-87
2020/12/29 00:07:29;;;;;;;7.70;3.17;;;4.40;99.90;;;;;;4950103;28;20457;-87
2020/12/29 00:09:57;;;;;;;3.43;2.07;;;4.30;99.90;;;;;;4965360;28;20202;-87
2020/12/29 00:12:23;;;;;;;2.60;1.80;;;4.20;99.90;;;;;;4951628;28;20221;-87
2020/12/29 00:14:49;;;;;;;3.23;2.93;;;4.10;99.90;;;;;;4956521;28;20441;-84
2020/12/29 00:17:17;;;;;;;3.50;2.43;;;4.10;99.90;;;;;;4935046;28;20679;-85
2020/12/29 00:19:43;;;;;;;3.23;2.20;;;4.00;99.90;;;;;;4949862;28;21341;-86
2020/12/29 00:22:09;;;;;;;3.67;2.50;;;4.00;99.90;;;;;;4930123;28;20458;-87
2020/12/29 00:24:34;;;;;;;4.00;2.87;;;4.00;99.90;;;;;;4941685;28;20193;-87
2020/12/29 00:27:03;;;;;;;2.73;2.50;;;3.90;99.90;;;;;;4937387;28;20198;-86
2020/12/29 00:29:32;;;;;;;2.83;2.33;;;3.80;99.90;;;;;;4952274;28;20291;-86
2020/12/29 00:32:04;;;;;;;2.50;2.10;;;3.60;99.90;;;;;;4950014;28;20445;-87
2020/12/29 00:34:35;;;;;;;2.40;2.20;;;3.50;99.90;;;;;;4935936;28;20446;-87
2020/12/29 00:37:04;;;;;;;2.80;2.50;;;3.50;99.90;;;;;;4969435;28;20935;-86
2020/12/29 00:39:29;;;;;;;7.47;2.43;;;3.40;99.90;;;;;;4969516;28;20503;-87
2020/12/29 00:41:55;;;;;;;2.87;2.37;;;3.30;99.90;;;;;;4953359;28;20477;-85
2020/12/29 00:44:21;;;;;;;3.80;2.40;;;3.20;99.90;;;;;;4938890;28;20194;-87
2020/12/29 00:46:47;;;;;;;2.40;1.60;;;3.20;99.90;;;;;;4990699;28;20198;-87
2020/12/29 00:49:12;;;;;;;1.83;1.50;;;3.10;99.90;;;;;;4979346;28;20211;-87
2020/12/29 00:51:38;;;;;;;2.23;2.03;;;3.10;99.90;;;;;;4988517;28;20242;-88
2020/12/29 00:54:06;;;;;;;2.97;1.70;;;3.10;99.90;;;;;;4976258;28;20191;-87
2020/12/29 00:56:31;;;;;;;4.50;2.57;;;3.10;99.90;;;;;;4986790;28;20192;-90
2020/12/29 00:59:00;;;;;;;2.20;2.00;;;3.00;99.90;;;;;;4991780;28;20437;-86
2020/12/29 01:01:28;;;;;;;3.13;2.40;;;3.00;99.90;;;;;;4981186;28;20210;-84
2020/12/29 01:03:53;;;;;;;1.87;1.67;;;3.00;99.90;;;;;;4965828;28;20434;-86
2020/12/29 01:06:29;;;;;;;1.30;1.20;;;3.10;99.90;;;;;;4950623;28;20475;-86
2020/12/29 01:08:58;;;;;;;2.03;1.23;;;3.30;99.90;;;;;;4920757;28;20206;-87
2020/12/29 01:11:24;;;;;;;1.00;0.80;;;3.40;99.90;;;;;;4950782;28;20998;-86
2020/12/29 01:13:49;;;;;;;0.90;0.80;;;3.50;99.90;;;;;;4935142;28;20450;-86
2020/12/29 01:16:18;;;;;;;1.00;0.90;;;3.80;99.90;;;;;;4964578;28;20690;-85
2020/12/29 01:18:44;;;;;;;1.30;0.80;;;4.00;99.90;;;;;;4947721;28;20454;-84
2020/12/29 01:21:10;;;;;;;1.00;0.80;;;4.20;99.90;;;;;;4951335;28;20464;-84
2020/12/29 01:23:36;;;;;;;2.47;0.97;;;4.30;99.90;;;;;;4949675;28;20183;-87
2020/12/29 01:26:03;;;;;;;3.93;1.03;;;4.30;99.90;;;;;;4965601;28;20473;-86
2020/12/29 01:28:28;;;;;;;1.30;1.10;;;4.40;99.90;;;;;;4965057;28;20438;-85
2020/12/29 01:30:54;;;;;;;1.10;1.00;;;4.40;99.90;;;;;;4934427;28;20488;-86
2020/12/29 01:33:20;;;;;;;1.40;0.80;;;4.50;99.90;;;;;;4964188;28;20222;-86
2020/12/29 01:35:45;;;;;;;1.00;0.80;;;4.60;99.90;;;;;;4934684;28;20294;-88
2020/12/29 01:38:15;;;;;;;1.00;0.80;;;4.60;99.90;;;;;;4944506;28;20233;-83
2020/12/29 01:40:41;;;;;;;0.90;0.70;;;4.70;99.90;;;;;;4948613;28;20214;-85
2020/12/29 01:43:07;;;;;;;1.00;0.80;;;4.70;99.90;;;;;;4946187;28;20429;-88
2020/12/29 01:45:32;;;;;;;1.00;0.77;;;4.80;99.90;;;;;;4984968;28;20458;-88
2020/12/29 01:47:58;;;;;;;1.00;0.90;;;4.80;99.90;;;;;;4971574;28;20221;-87
2020/12/29 01:50:24;;;;;;;1.83;0.80;;;4.80;99.90;;;;;;4940959;28;20306;-87
2020/12/29 01:52:58;;;;;;;2.10;0.90;;;4.80;99.90;;;;;;4969434;28;20190;-86
2020/12/29 01:55:25;;;;;;;1.10;0.90;;;4.70;99.90;;;;;;4959510;28;20442;-87
2020/12/29 01:57:52;;;;;;;1.00;0.80;;;4.70;99.90;;;;;;4935101;28;20454;-88
2020/12/29 02:00:18;;;;;;;1.00;0.80;;;4.60;99.90;;;;;;4949773;28;21036;-87
2020/12/29 02:02:45;;;;;;;1.20;0.90;;;4.60;99.90;;;;;;4965847;28;20820;-88
2020/12/29 02:05:11;;;;;;;0.93;0.83;;;4.60;99.90;;;;;;4965255;28;20529;-88
2020/12/29 02:07:38;;;;;;;0.90;0.70;;;4.60;99.90;;;;;;4968517;28;20510;-88
2020/12/29 02:10:04;;;;;;;1.00;0.80;;;4.70;99.90;;;;;;4947262;28;20848;-87
2020/12/29 02:12:36;;;;;;;1.20;0.80;;;4.70;99.90;;;;;;4945760;28;20641;-89
2020/12/29 02:15:08;;;;;;;1.00;0.80;;;4.70;99.90;;;;;;4967283;28;20434;-86
2020/12/29 02:17:37;;;;;;;0.90;0.70;;;4.70;99.90;;;;;;4965812;28;20449;-88
2020/12/29 02:20:06;;;;;;;0.90;0.70;;;4.70;99.90;;;;;;4947310;28;20524;-89
2020/12/29 02:22:32;;;;;;;1.30;0.80;;;4.80;99.90;;;;;;4968436;28;21058;-87
2020/12/29 02:25:01;;;;;;;6.53;1.13;;;4.80;99.90;;;;;;4965603;28;20470;-88
2020/12/29 02:27:32;;;;;;;1.00;0.90;;;4.80;99.90;;;;;;4944056;28;20446;-89
2020/12/29 02:30:10;;;;;;;1.03;0.90;;;4.80;99.90;;;;;;4950686;28;20541;-87
2020/12/29 02:32:41;;;;;;;1.63;0.90;;;4.80;99.90;;;;;;4949191;28;20442;-88
2020/12/29 02:35:09;;;;;;;1.77;1.20;;;4.90;99.90;;;;;;4963842;28;20956;-88
2020/12/29 02:37:40;;;;;;;0.93;0.77;;;4.90;99.90;;;;;;4948693;28;20475;-87
2020/12/29 02:40:06;;;;;;;1.73;1.63;;;4.90;99.90;;;;;;4950696;28;20469;-87
2020/12/29 02:42:34;;;;;;;1.03;0.83;;;5.10;99.90;;;;;;4950263;28;20441;-89
2020/12/29 02:45:03;;;;;;;1.30;0.90;;;5.20;99.90;;;;;;4936784;28;20721;-88
2020/12/29 02:47:45;;;;;;;1.00;0.80;;;5.30;99.90;;;;;;4966298;28;20418;-86
2020/12/29 02:50:11;;;;;;;2.23;0.90;;;5.40;99.90;;;;;;4967789;28;20513;-86
2020/12/29 02:52:42;;;;;;;1.27;0.83;;;5.40;99.90;;;;;;4948465;28;20459;-86
2020/12/29 02:55:11;;;;;;;1.10;0.90;;;5.40;99.90;;;;;;4954822;28;20550;-86
2020/12/29 02:57:36;;;;;;;0.90;0.70;;;5.40;99.90;;;;;;4936283;28;20472;-85
2020/12/29 03:00:07;;;;;;;1.20;0.90;;;5.50;99.90;;;;;;4952446;28;20460;-87
2020/12/29 03:02:33;;;;;;;1.10;1.00;;;5.50;99.90;;;;;;4952539;28;20203;-87
2020/12/29 03:05:04;;;;;;;1.00;0.80;;;5.50;99.90;;;;;;4967272;28;20565;-86
2020/12/29 03:07:35;;;;;;;1.07;0.90;;;5.50;99.90;;;;;;4951475;28;20830;-87
2020/12/29 03:10:02;;;;;;;2.70;1.00;;;5.50;99.90;;;;;;4969638;28;20537;-85
2020/12/29 03:12:28;;;;;;;7.80;1.83;;;5.50;99.90;;;;;;4951918;28;20518;-87
2020/12/29 03:14:53;;;;;;;2.80;0.90;;;5.40;99.90;;;;;;4964829;28;20518;-87
2020/12/29 03:17:19;;;;;;;1.53;1.13;;;5.50;99.90;;;;;;4938721;28;20221;-86
2020/12/29 03:19:44;;;;;;;0.90;0.77;;;5.50;99.90;;;;;;4966989;28;20218;-87
2020/12/29 03:22:13;;;;;;;1.27;0.90;;;5.50;99.90;;;;;;4935470;28;20553;-86
2020/12/29 03:24:41;;;;;;;1.40;0.83;;;5.50;99.90;;;;;;4966020;28;20183;-86
2020/12/29 03:27:06;;;;;;;0.97;0.70;;;5.50;99.90;;;;;;4971617;28;20440;-83
2020/12/29 03:29:32;;;;;;;1.30;0.90;;;5.50;99.90;;;;;;4967634;28;21158;-86
2020/12/29 03:31:58;;;;;;;1.00;0.80;;;5.50;99.90;;;;;;4953241;28;20224;-86
2020/12/29 03:36:49;;;;;;;0.90;0.70;;;5.40;99.90;;;;;;4969559;28;20221;-86
2020/12/29 03:39:24;;;;;;;1.00;0.80;;;5.40;99.90;;;;;;4968273;28;20277;-86
2020/12/29 03:41:49;;;;;;;1.30;0.80;;;5.40;99.90;;;;;;4951633;28;20853;-88
2020/12/29 03:44:15;;;;;;;1.00;0.80;;;5.40;99.90;;;;;;4948022;28;20431;-86
2020/12/29 03:46:41;;;;;;;1.17;0.80;;;5.30;99.90;;;;;;4952366;28;20218;-85
2020/12/29 03:49:09;;;;;;;1.00;0.80;;;5.30;99.90;;;;;;4971301;28;20202;-86
2020/12/29 03:51:38;;;;;;;0.90;0.70;;;5.30;99.90;;;;;;4953935;28;20222;-87
2020/12/29 03:54:06;;;;;;;1.17;0.90;;;5.30;99.90;;;;;;4956760;28;20522;-88
2020/12/29 03:56:34;;;;;;;1.20;0.90;;;5.30;99.90;;;;;;4968847;28;20433;-88
2020/12/29 03:59:03;;;;;;;1.00;0.80;;;5.30;99.90;;;;;;4967920;28;20444;-88
2020/12/29 04:01:31;;;;;;;1.60;0.90;;;5.40;99.90;;;;;;4970751;28;20461;-85
2020/12/29 04:04:00;;;;;;;1.97;0.80;;;5.40;99.90;;;;;;4968512;28;20529;-85
2020/12/29 04:06:29;;;;;;;0.90;0.70;;;5.40;99.90;;;;;;4947038;28;20482;-88
2020/12/29 04:08:55;;;;;;;1.00;0.77;;;5.40;99.90;;;;;;4972935;28;20433;-88
2020/12/29 04:11:21;;;;;;;3.60;0.80;;;5.40;99.90;;;;;;4953785;28;20461;-87
2020/12/29 04:13:52;;;;;;;1.30;0.90;;;5.40;99.90;;;;;;4939888;28;20195;-87
2020/12/29 04:16:25;;;;;;;0.97;0.80;;;5.30;99.90;;;;;;4971188;28;20194;-86
2020/12/29 04:18:53;;;;;;;1.07;0.90;;;5.30;99.90;;;;;;4952858;28;20443;-87
2020/12/29 04:21:22;;;;;;;1.00;0.90;;;5.30;99.90;;;;;;4947785;28;20511;-86
2020/12/29 04:23:51;;;;;;;0.97;0.80;;;5.20;99.90;;;;;;4949153;28;20967;-88
2020/12/29 04:26:19;;;;;;;0.90;0.80;;;5.20;99.90;;;;;;4950892;28;20930;-87
2020/12/29 04:28:48;;;;;;;1.73;1.10;;;5.20;99.90;;;;;;4962805;28;20463;-88
2020/12/29 04:31:22;;;;;;;1.00;0.80;;;5.20;99.90;;;;;;4967751;28;20491;-85
2020/12/29 04:33:50;;;;;;;0.90;0.80;;;5.20;99.90;;;;;;4951731;28;20438;-86
2020/12/29 04:36:22;;;;;;;0.97;0.87;;;5.20;99.90;;;;;;4950174;28;20455;-87
2020/12/29 04:38:54;;;;;;;1.00;0.80;;;5.20;99.90;;;;;;4949662;28;20974;-86
2020/12/29 04:41:19;;;;;;;0.90;0.80;;;5.10;99.90;;;;;;4952756;28;20469;-87
2020/12/29 06:13:28;;;;;;;1.37;1.27;;;2.10;99.90;;;;;;5895107;23;20480;-85
2020/12/29 06:16:39;;;;;;;0.93;0.80;;;2.20;99.90;;;;;;4951394;28;20446;-86
2020/12/29 06:19:32;;;;;;;1.00;0.80;;;2.20;99.90;;;;;;4887637;29;20504;-87
2020/12/29 06:22:11;;;;;;;0.90;0.80;;;2.20;99.90;;;;;;4926763;29;20451;-88
2020/12/29 06:24:47;;;;;;;0.90;0.70;;;2.30;99.90;;;;;;4910769;29;21052;-89
2020/12/29 06:27:18;;;;;;;1.00;0.80;;;2.30;99.90;;;;;;4913406;29;20455;-86
2020/12/29 06:29:57;;;;;;;1.00;0.90;;;2.30;99.90;;;;;;4926413;29;20459;-84
2020/12/29 06:32:34;;;;;;;1.10;1.00;;;2.40;99.90;;;;;;4912541;29;20476;-85
2020/12/29 06:35:17;;;;;;;0.90;0.80;;;2.50;99.90;;;;;;4916226;29;20459;-87
2020/12/29 08:13:21;;;;;;;2.07;1.10;;;3.60;99.90;;;;;;5138213;23;20506;-85
2020/12/29 08:15:48;;;;;;;1.33;1.13;;;3.70;99.90;;;;;;4939282;28;20790;-83
2020/12/29 08:18:19;;;;;;;1.10;0.80;;;3.70;99.90;;;;;;4945136;28;20222;-87
2020/12/29 08:20:54;;;;;;;1.10;1.00;;;3.70;99.90;;;;;;4938303;28;20464;-84
2020/12/29 08:23:27;;;;;;;0.90;0.80;;;3.80;99.90;;;;;;4938359;29;20458;-87
2020/12/29 08:26:11;;;;;;;2.40;1.00;;;3.80;99.90;;;;;;4925476;29;20476;-86
2020/12/29 08:28:58;;;;;;;1.10;0.90;;;3.80;99.90;;;;;;4889653;29;20443;-87
2020/12/29 08:32:10;;;;;;;1.73;1.50;;;3.80;99.90;;;;;;4921011;29;20455;-88
2020/12/29 08:35:12;;;;;;;1.00;0.80;;;3.90;99.90;;;;;;4893936;29;20432;-86
2020/12/29 08:38:10;;;;;;;1.60;0.97;;;3.80;99.90;;;;;;4921729;29;20441;-86
2020/12/29 08:40:59;;;;;;;1.00;0.90;;;3.90;99.90;;;;;;4915950;29;20465;-86
2020/12/29 08:43:49;;;;;;;1.40;1.10;;;3.90;99.90;;;;;;4936790;29;21050;-81
2020/12/29 08:51:57;;;;;;;1.13;1.03;;;4.00;99.90;;;;;;5055994;23;20497;-87
2020/12/29 08:54:29;;;;;;;1.23;0.83;;;4.10;99.90;;;;;;4940089;28;20517;-87
2020/12/29 08:57:10;;;;;;;1.00;0.80;;;4.20;99.90;;;;;;4951775;28;20530;-86
2020/12/29 08:59:51;;;;;;;0.90;0.80;;;4.30;99.90;;;;;;4947716;28;20438;-82
2020/12/29 09:02:27;;;;;;;1.30;1.00;;;4.40;99.90;;;;;;4947347;28;20489;-84
2020/12/29 09:05:02;;;;;;;1.20;0.83;;;4.40;99.90;;;;;;4948655;28;20507;-84
2020/12/29 09:07:43;;;;;;;1.27;1.10;;;4.40;99.90;;;;;;4947661;28;20442;-85
2020/12/29 09:10:12;;;;;;;2.40;1.00;;;4.50;99.90;;;;;;4931395;28;20517;-86
2020/12/29 09:12:38;;;;;;;1.20;1.00;;;4.50;99.90;;;;;;4935573;28;20463;-83
2020/12/29 09:15:12;;;;;;;2.80;0.80;;;4.50;99.90;;;;;;4930706;28;20459;-86
2020/12/29 09:17:43;;;;;;;1.93;1.40;;;4.50;99.90;;;;;;4932045;28;20191;-89
2020/12/29 09:20:44;;;;;;;1.20;0.90;;;4.50;99.90;;;;;;4936104;28;20439;-88
2020/12/29 09:23:18;;;;;;;1.10;0.97;;;4.50;99.90;;;;;;4937549;28;20430;-88
2020/12/29 09:25:44;;;;;;;4.60;1.10;;;4.60;99.90;;;;;;4935732;28;20529;-86
2020/12/29 09:28:23;;;;;;;;;;;;;;;;;;;;;
2020/12/29 09:31:10;;;;;;;1.10;1.00;;;4.70;99.90;;;;;;4954199;28;20537;-85
2020/12/29 09:33:39;;;;;;;1.10;0.93;;;4.70;99.90;;;;;;4939941;28;20930;-86
2020/12/29 09:36:16;;;;;;;1.10;1.00;;;4.60;99.90;;;;;;4939663;28;21157;-85
2020/12/29 09:38:42;;;;;;;1.50;1.40;;;4.60;99.90;;;;;;4950366;28;20438;-89
2020/12/29 09:41:16;;;;;;;1.47;1.20;;;4.70;99.90;;;;;;4936155;28;20570;-86
2020/12/29 09:43:44;;;;;;;1.20;1.00;;;4.70;99.90;;;;;;4935906;28;20442;-86
2020/12/29 09:46:19;;;;;;;1.00;0.87;;;4.70;99.90;;;;;;4935216;28;20517;-85
2020/12/29 09:48:50;;;;;;;1.20;1.10;;;4.70;99.90;;;;;;4932890;28;20500;-88
2020/12/29 09:51:16;;;;;;;1.70;1.27;;;4.70;99.90;;;;;;4937631;28;20463;-87
2020/12/29 09:53:41;;;;;;;1.43;1.10;;;4.80;99.90;;;;;;4931129;28;20430;-86
2020/12/29 09:56:07;;;;;;;1.20;1.10;;;4.90;99.90;;;;;;4922554;28;20270;-87
2020/12/29 09:58:33;;;;;;;3.10;1.27;;;5.00;99.90;;;;;;4953239;28;21007;-87
2020/12/29 10:00:58;;;;;;;2.33;1.43;;;5.10;99.90;;;;;;4935295;28;20211;-85
2020/12/29 10:03:25;;;;;;;3.00;2.07;;;5.10;99.90;;;;;;4932979;28;20195;-86
2020/12/29 10:05:55;;;;;;;1.57;1.47;;;5.00;99.90;;;;;;4937105;28;20192;-87
2020/12/29 10:08:23;;;;;;;1.50;1.37;;;4.90;99.90;;;;;;4944589;28;20465;-84
2020/12/29 10:10:49;;;;;;;1.83;1.17;;;4.90;99.90;;;;;;4920710;28;20471;-85
2020/12/29 10:13:15;;;;;;;1.67;1.30;;;4.80;99.90;;;;;;4947588;28;20808;-88
2020/12/29 10:15:40;;;;;;;5.30;1.70;;;4.80;99.90;;;;;;4931874;28;20223;-87
2020/12/29 10:18:06;;;;;;;1.70;1.17;;;4.90;99.90;;;;;;4930170;28;20191;-88
2020/12/29 10:20:32;;;;;;;1.20;1.10;;;4.90;99.90;;;;;;4950924;28;20270;-87
2020/12/29 10:22:57;;;;;;;1.20;1.07;;;4.90;99.90;;;;;;4955464;28;20198;-87
2020/12/29 10:25:23;;;;;;;3.50;1.30;;;4.80;99.90;;;;;;4934885;28;20231;-85
2020/12/29 10:27:49;;;;;;;2.30;1.67;;;4.90;99.90;;;;;;4930658;28;20246;-86
2020/12/29 10:30:18;;;;;;;1.60;1.50;;;4.90;99.90;;;;;;4949996;28;20269;-87
2020/12/29 10:32:44;;;;;;;3.67;1.20;;;4.90;99.90;;;;;;4927595;28;20379;-86
2020/12/29 10:35:09;;;;;;;1.60;1.50;;;5.00;99.90;;;;;;4932455;28;20427;-84
2020/12/29 10:37:35;;;;;;;2.90;1.70;;;5.00;99.90;;;;;;4932019;28;20435;-83
2020/12/29 10:40:01;;;;;;;1.57;1.30;;;5.10;99.90;;;;;;4931480;28;20210;-88
2020/12/29 10:42:27;;;;;;;1.30;1.20;;;5.10;99.90;;;;;;4918007;28;20187;-87
2020/12/29 10:45:04;;;;;;;2.33;1.27;;;5.20;99.90;;;;;;4936179;28;20454;-86
2020/12/29 10:47:44;;;;;;;1.93;1.50;;;5.40;99.90;;;;;;4927861;28;20267;-85
2020/12/29 10:50:15;;;;;;;1.57;1.23;;;5.60;99.90;;;;;;4951940;28;20812;-86
2020/12/29 10:52:46;;;;;;;1.30;1.20;;;5.50;99.90;;;;;;4948525;28;20429;-85
2020/12/29 10:55:12;;;;;;;1.30;1.20;;;5.60;99.90;;;;;;4951611;28;20442;-86
2020/12/29 10:57:37;;;;;;;1.87;1.30;;;5.60;99.90;;;;;;4951358;28;20419;-85
2020/12/29 11:00:03;;;;;;;1.83;1.57;;;5.70;99.90;;;;;;4931557;28;20833;-85
2020/12/29 11:02:32;;;;;;;1.63;1.20;;;5.80;99.90;;;;;;4950095;28;20198;-85
2020/12/29 11:04:58;;;;;;;1.40;1.30;;;5.80;99.90;;;;;;4933740;28;20438;-86
2020/12/29 11:07:24;;;;;;;2.10;1.70;;;5.80;99.90;;;;;;4918924;28;20482;-87
2020/12/29 11:09:49;;;;;;;2.13;1.40;;;5.90;99.90;;;;;;4931891;28;20236;-85
2020/12/29 11:12:15;;;;;;;1.60;1.40;;;6.00;99.90;;;;;;4950181;28;20710;-83
2020/12/29 11:14:43;;;;;;;1.50;1.27;;;6.00;99.90;;;;;;4946058;28;20222;-85
2020/12/29 11:17:09;;;;;;;1.37;1.10;;;6.10;99.90;;;;;;4949429;28;20195;-87
2020/12/29 11:19:43;;;;;;;1.43;1.23;;;6.20;99.90;;;;;;4932607;28;20484;-86
2020/12/29 11:22:08;;;;;;;1.57;1.30;;;6.20;99.90;;;;;;4948847;28;20843;-85
2020/12/29 11:24:50;;;;;;;3.50;1.67;;;6.00;99.90;;;;;;4936817;28;20485;-85
2020/12/29 11:27:15;;;;;;;1.53;1.33;;;6.00;99.90;;;;;;4920257;28;20305;-86
2020/12/29 11:29:41;;;;;;;2.20;1.30;;;6.00;99.90;;;;;;4920049;28;20629;-85
2020/12/29 11:32:10;;;;;;;2.20;1.50;;;6.10;99.90;;;;;;4920788;28;20184;-87
2020/12/29 11:34:35;;;;;;;2.23;1.60;;;6.00;99.90;;;;;;4950839;28;20218;-84
2020/12/29 11:37:01;;;;;;;2.90;1.67;;;6.00;99.90;;;;;;4932032;28;20439;-83
2020/12/29 11:39:27;;;;;;;2.00;1.20;;;6.00;99.90;;;;;;4940387;28;20183;-86
2020/12/29 11:41:56;;;;;;;3.00;1.50;;;5.90;99.90;;;;;;4949005;28;20222;-84
2020/12/29 11:44:24;;;;;;;1.57;1.10;;;6.00;99.90;;;;;;4940822;28;20221;-83
2020/12/29 11:46:55;;;;;;;1.30;1.20;;;6.10;99.90;;;;;;4941289;28;20471;-82
2020/12/29 11:49:26;;;;;;;3.47;1.40;;;6.10;99.90;;;;;;4946077;29;20423;-82
2020/12/29 11:51:57;;;;;;;2.10;1.70;;;6.00;99.90;;;;;;4949949;29;20463;-83
2020/12/29 11:54:43;;;;;;;9.60;2.80;;;5.90;99.90;;;;;;4973648;28;20447;-83
2020/12/29 11:57:12;;;;;;;2.33;1.50;;;5.80;99.90;;;;;;4953547;29;20418;-86
2020/12/29 11:59:58;;;;;;;2.43;1.60;;;5.80;99.90;;;;;;4950888;28;20495;-87
2020/12/29 12:02:29;;;;;;;1.40;1.30;;;5.80;99.90;;;;;;4970818;28;20435;-83
2020/12/29 12:05:02;;;;;;;2.03;1.60;;;5.90;99.90;;;;;;4948249;28;20431;-86
2020/12/29 12:07:28;;;;;;;1.80;1.40;;;6.00;99.90;;;;;;4944476;28;20477;-85
2020/12/29 12:09:54;;;;;;;2.70;1.53;;;6.20;99.90;;;;;;4944706;28;20867;-87
2020/12/29 12:12:23;;;;;;;1.63;1.50;;;6.40;99.90;;;;;;4944798;29;20199;-85
2020/12/29 12:14:52;;;;;;;1.67;1.57;;;6.40;99.90;;;;;;4946943;28;20514;-88
2020/12/29 12:17:17;;;;;;;1.93;1.40;;;6.40;99.90;;;;;;4940401;28;20450;-87
2020/12/29 12:19:46;;;;;;;1.47;1.20;;;6.50;99.90;;;;;;4942646;28;20465;-84
2020/12/29 12:22:15;;;;;;;1.60;1.50;;;6.60;99.90;;;;;;4940050;28;20199;-87
2020/12/29 12:24:40;;;;;;;3.90;1.77;;;6.70;99.90;;;;;;4957344;28;20450;-84
2020/12/29 12:27:06;;;;;;;7.43;1.20;;;6.80;99.90;;;;;;4951461;28;20993;-87
2020/12/29 12:29:31;;;;;;;1.77;1.37;;;7.00;99.90;;;;;;4952827;28;20195;-87
2020/12/29 12:31:57;;;;;;;1.83;1.47;;;7.20;99.90;;;;;;4942012;28;20187;-86
2020/12/29 12:34:24;;;;;;;3.10;1.40;;;7.10;99.90;;;;;;4953681;28;20264;-84
2020/12/29 12:36:53;;;;;;;1.30;1.20;;;6.90;99.90;;;;;;4933024;28;20966;-86
2020/12/29 12:39:22;;;;;;;1.53;1.40;;;6.90;99.90;;;;;;4952203;28;20191;-85
2020/12/29 12:41:48;;;;;;;1.37;1.27;;;6.70;99.90;;;;;;4936221;28;20433;-84
2020/12/29 12:44:13;;;;;;;3.53;1.30;;;6.70;99.90;;;;;;4935099;28;20443;-86
2020/12/29 12:46:43;;;;;;;2.83;1.63;;;6.60;99.90;;;;;;4938703;28;20478;-85
2020/12/29 12:49:09;;;;;;;2.80;1.73;;;6.60;99.90;;;;;;4934485;28;20196;-87
2020/12/29 12:51:49;;;;;;;2.00;1.40;;;6.60;99.90;;;;;;4937807;28;20820;-87
2020/12/29 12:54:32;;;;;;;2.60;1.60;;;6.60;99.90;;;;;;4950445;28;20504;-87
2020/12/29 12:56:57;;;;;;;2.77;1.50;;;6.80;99.90;;;;;;4931023;28;20466;-89
2020/12/29 12:59:26;;;;;;;1.30;1.20;;;7.00;99.90;;;;;;4933021;28;20943;-88
2020/12/29 13:01:53;;;;;;;3.27;1.80;;;7.00;99.90;;;;;;4940007;28;20292;-89
2020/12/29 13:04:22;;;;;;;6.00;1.53;;;7.10;99.90;;;;;;4950592;28;20454;-89
2020/12/29 13:06:49;;;;;;;2.60;1.47;;;7.20;99.90;;;;;;4957417;28;20982;-88
2020/12/29 13:09:15;;;;;;;2.80;1.77;;;7.30;99.90;;;;;;4933369;28;20463;-89
2020/12/29 13:11:42;;;;;;;1.23;1.10;;;7.40;99.90;;;;;;4940526;28;20449;-88
2020/12/29 13:14:07;;;;;;;1.30;1.20;;;7.40;99.90;;;;;;4938827;28;20183;-88
2020/12/29 13:16:33;;;;;;;3.27;1.90;;;7.30;99.90;;;;;;4947183;28;20482;-90
2020/12/29 13:18:58;;;;;;;3.20;1.30;;;7.30;99.90;;;;;;4917206;28;20366;-88
2020/12/29 13:21:24;;;;;;;4.23;1.60;;;7.40;99.90;;;;;;4932452;29;20322;-89
2020/12/29 13:23:50;;;;;;;3.57;1.57;;;7.40;99.90;;;;;;4942106;29;20190;-87
2020/12/29 13:26:19;;;;;;;1.90;1.80;;;7.40;99.90;;;;;;4937580;28;20210;-89
2020/12/29 13:28:45;;;;;;;2.40;1.87;;;7.30;99.90;;;;;;4935406;29;20188;-88
2020/12/29 13:31:11;;;;;;;1.70;1.33;;;7.20;99.90;;;;;;4937692;28;20454;-89
2020/12/29 13:33:41;;;;;;;2.00;1.40;;;7.20;99.90;;;;;;4937902;28;20439;-88
2020/12/29 13:36:08;;;;;;;2.07;1.83;;;7.30;99.90;;;;;;4933295;29;20506;-89
2020/12/29 13:38:35;;;;;;;1.67;1.37;;;7.20;99.90;;;;;;4944453;29;20446;-87
2020/12/29 13:41:01;;;;;;;1.87;1.50;;;7.30;99.90;;;;;;4944930;28;20547;-88
2020/12/29 13:43:28;;;;;;;1.60;1.50;;;7.30;99.90;;;;;;4940162;29;20526;-88
2020/12/29 13:45:54;;;;;;;2.00;1.70;;;7.20;99.90;;;;;;4920761;29;20269;-88
2020/12/29 13:48:21;;;;;;;2.13;1.40;;;7.20;99.90;;;;;;4943180;28;20456;-88
2020/12/29 13:50:48;;;;;;;2.33;1.50;;;7.30;99.90;;;;;;4958752;28;20438;-88
2020/12/29 13:53:13;;;;;;;1.77;1.60;;;7.30;99.90;;;;;;4970721;28;20450;-89
2020/12/29 13:55:42;;;;;;;1.93;1.70;;;7.20;99.90;;;;;;4928804;29;20442;-88
2020/12/29 13:58:08;;;;;;;1.93;1.70;;;7.20;99.90;;;;;;4946582;29;20322;-89
2020/12/29 14:00:39;;;;;;;2.40;1.70;;;7.20;99.90;;;;;;4960283;28;20434;-89
2020/12/29 14:03:04;;;;;;;2.07;1.43;;;7.30;99.90;;;;;;4955188;28;20181;-89
2020/12/29 14:05:30;;;;;;;1.83;1.73;;;7.20;99.90;;;;;;4938848;28;20605;-88
2020/12/29 14:07:56;;;;;;;1.93;1.70;;;7.20;99.90;;;;;;4938631;28;20226;-90
2020/12/29 14:10:22;;;;;;;2.00;1.80;;;7.20;99.90;;;;;;4933330;28;20471;-89
2020/12/29 14:12:48;;;;;;;2.30;1.83;;;7.30;99.90;;;;;;4922395;29;20187;-88
2020/12/29 14:15:17;;;;;;;2.63;2.00;;;7.30;99.90;;;;;;4922498;29;20573;-89
2020/12/29 14:17:42;;;;;;;2.40;2.00;;;7.30;99.90;;;;;;4922924;28;20223;-87
2020/12/29 14:20:08;;;;;;;1.97;1.60;;;7.20;99.90;;;;;;4936617;28;20548;-88
2020/12/29 14:22:36;;;;;;;2.57;2.10;;;7.20;99.90;;;;;;4937655;29;20191;-89
2020/12/29 14:25:02;;;;;;;2.57;1.80;;;7.20;99.90;;;;;;4952533;28;20189;-89
2020/12/29 14:27:27;;;;;;;2.10;1.70;;;7.30;99.90;;;;;;4938396;28;20547;-88
2020/12/29 14:29:58;;;;;;;1.97;1.77;;;7.30;99.90;;;;;;4924111;29;20227;-91
2020/12/29 14:32:24;;;;;;;1.90;1.70;;;7.30;99.90;;;;;;4938736;28;20187;-88
2020/12/29 14:34:50;;;;;;;3.50;1.63;;;7.20;99.90;;;;;;4935005;29;20800;-89
2020/12/29 14:37:17;;;;;;;2.13;1.93;;;7.20;99.90;;;;;;4938763;28;20187;-90
2020/12/29 14:39:43;;;;;;;1.97;1.60;;;7.20;99.90;;;;;;4923351;28;20309;-88
2020/12/29 14:42:08;;;;;;;2.13;1.70;;;7.10;99.90;;;;;;4933087;29;20591;-89
2020/12/29 14:44:34;;;;;;;1.53;1.43;;;7.00;99.90;;;;;;4934465;28;20202;-89
2020/12/29 14:47:01;;;;;;;2.53;1.50;;;6.80;99.90;;;;;;4935412;28;20207;-89
2020/12/29 14:49:34;;;;;;;2.10;1.80;;;6.60;99.90;;;;;;4926158;28;20184;-90
2020/12/29 14:52:09;;;;;;;1.80;1.57;;;6.40;99.90;;;;;;4948690;28;20453;-91
2020/12/29 14:54:46;;;;;;;3.37;2.23;;;6.20;99.90;;;;;;4932416;28;20442;-92
2020/12/29 14:57:15;;;;;;;2.00;1.37;;;6.20;99.90;;;;;;4917533;28;20934;-92
2020/12/29 15:00:17;;;;;;;2.43;1.77;;;6.20;99.90;;;;;;4916567;28;20729;-90
2020/12/29 15:03:08;;;;;;;1.83;1.73;;;6.10;99.90;;;;;;4931466;28;20441;-91
2020/12/29 15:06:36;;;;;;;2.13;1.83;;;6.10;99.90;;;;;;4947413;28;21294;-91
2020/12/29 15:09:25;;;;;;;2.50;2.30;;;6.00;99.90;;;;;;4869380;29;20433;-91
2020/12/29 15:11:53;;;;;;;1.87;1.57;;;6.00;99.90;;;;;;4873542;29;20447;-94
2020/12/29 15:14:47;;;;;;;2.00;1.50;;;5.80;99.90;;;;;;4872191;29;20442;-93
2020/12/29 15:20:53;;;;;;;1.67;1.40;;;4.70;99.90;;;;;;4868452;29;20489;-92
2020/12/29 15:23:29;;;;;;;1.93;1.77;;;4.40;99.90;;;;;;4873919;29;20517;-93
2020/12/29 15:26:10;;;;;;;1.63;1.37;;;4.30;99.90;;;;;;4939704;28;20537;-90
2020/12/29 16:29:47;;;;;;;6.43;4.33;;;4.40;99.90;;;;;;4783469;26;20549;-89
2020/12/29 16:32:39;;;;;;;6.63;4.43;;;4.60;99.90;;;;;;4959173;28;20450;-85
2020/12/29 16:35:11;;;;;;;8.20;4.27;;;4.60;99.90;;;;;;4952224;28;20187;-89
2020/12/29 16:38:02;;;;;;;;;;;;;;;;;;;;;
2020/12/29 16:40:28;;;;;;;12.53;4.10;;;4.60;99.90;;;;;;4953623;28;20506;-86
2020/12/29 16:46:44;;;;;;;6.67;5.73;;;4.70;99.90;;;;;;4943312;28;20232;-90
2020/12/29 16:49:19;;;;;;;8.40;6.43;;;4.60;99.90;;;;;;4945961;28;21522;-85
2020/12/29 16:55:20;;;;;;;11.10;6.10;;;4.60;99.90;;;;;;4902416;29;20440;-84
2020/12/29 16:58:04;;;;;;;6.60;4.37;;;4.60;99.90;;;;;;4935526;28;20447;-87
2020/12/29 17:00:30;;;;;;;6.07;4.83;;;4.60;99.90;;;;;;5280646;23;20728;-85
2020/12/29 17:03:07;;;;;;;8.70;5.13;;;4.60;99.90;;;;;;4934840;28;20521;-89
2020/12/29 17:05:53;;;;;;;8.53;5.00;;;4.60;99.90;;;;;;4928980;28;20576;-87
2020/12/29 17:08:22;;;;;;;6.43;4.30;;;4.60;99.90;;;;;;4938236;28;20447;-86
2020/12/29 17:10:53;;;;;;;6.70;4.50;;;4.70;99.90;;;;;;4935818;28;20474;-86
2020/12/29 17:17:13;;;;;;;5.10;4.27;;;4.70;99.90;;;;;;4943767;28;20487;-87
2020/12/29 17:20:06;;;;;;;9.53;5.10;;;4.60;99.90;;;;;;4948682;28;20431;-87
2020/12/29 17:52:05;;;;;;;13.27;8.50;;;4.50;99.90;;;;;;4957885;28;20581;-84
2020/12/29 17:58:51;;;;;;;10.80;6.33;;;4.30;99.90;;;;;;4885743;29;20516;-89
2020/12/29 18:01:27;;;;;;;9.80;7.40;;;4.10;99.90;;;;;;4859749;28;20760;-87
2020/12/29 18:03:56;;;;;;;19.50;10.00;;;3.90;99.90;;;;;;4929926;28;20466;-86
2020/12/29 18:06:22;;;;;;;12.67;7.93;;;3.90;99.90;;;;;;4915970;28;20493;-84
2020/12/29 18:08:48;;;;;;;15.77;10.63;;;4.00;99.90;;;;;;4949302;28;20989;-83
2020/12/29 18:11:15;;;;;;;15.00;9.33;;;3.90;99.90;;;;;;4912061;28;20486;-87
2020/12/29 18:13:47;;;;;;;19.03;9.40;;;3.80;99.90;;;;;;4934545;28;20196;-88
2020/12/29 18:23:19;;;;;;;;;;;;;;;;;;;;;
2020/12/29 18:25:51;;;;;;;9.10;7.77;;;3.30;99.90;;;;;;4886759;29;20477;-85